RYR1709 LEVC-LPPR
Flight info
| Callsign | RYR1709 |
|---|---|
| Flight time | 1h 33m |
| Altitude | 31000 |
| Route | CENTA N733 PRADO/N0430F330 N733 ZMR L155 ADORO DCT CANAR DCT INKIT |
| Aircraft | B738/M-SDE2E3FGHIRWXY/LB1 |
Departure
| Time | 2026-05-04 20:47 |
|---|---|
| Airport | Valencia Airport (LEVC) |
Arrival
| Time | 2026-05-04 22:20 |
|---|---|
| Airport | Francisco de Sá Carneiro Airport (LPPR) |
| Time | Latitude | Longitude | Altitude | Speed | Heading |
|---|---|---|---|---|---|
| 2026-05-04 20:15 | 39.49119 | -0.47544 | 207 ft | 0 kts | 45° |
| 2026-05-04 20:15 | 39.49119 | -0.47543 | 208 ft | 0 kts | 45° |
| 2026-05-04 20:31 | 39.49108 | -0.47557 | 208 ft | 4 kts | 40° |
| 2026-05-04 20:32 | 39.49086 | -0.47577 | 208 ft | 4 kts | 24° |
| 2026-05-04 20:32 | 39.49061 | -0.47585 | 208 ft | 4 kts | 358° |
| 2026-05-04 20:32 | 39.49038 | -0.47576 | 208 ft | 4 kts | 310° |
| 2026-05-04 20:32 | 39.49034 | -0.47568 | 217 ft | 0 kts | 296° |
| 2026-05-04 20:38 | 39.49035 | -0.47572 | 217 ft | 1 kts | 296° |
| 2026-05-04 20:38 | 39.49042 | -0.47593 | 210 ft | 4 kts | 294° |
| 2026-05-04 20:39 | 39.49054 | -0.47638 | 217 ft | 6 kts | 279° |
| 2026-05-04 20:39 | 39.49051 | -0.47705 | 208 ft | 8 kts | 258° |
| 2026-05-04 20:39 | 39.49037 | -0.47788 | 212 ft | 11 kts | 258° |
| 2026-05-04 20:39 | 39.49032 | -0.47886 | 213 ft | 12 kts | 282° |
| 2026-05-04 20:40 | 39.49067 | -0.47991 | 213 ft | 14 kts | 295° |
| 2026-05-04 20:40 | 39.49111 | -0.48107 | 215 ft | 15 kts | 296° |
| 2026-05-04 20:40 | 39.49158 | -0.48231 | 212 ft | 14 kts | 296° |
| 2026-05-04 20:40 | 39.49202 | -0.48347 | 218 ft | 14 kts | 296° |
| 2026-05-04 20:41 | 39.49245 | -0.48458 | 218 ft | 13 kts | 296° |
| 2026-05-04 20:41 | 39.49283 | -0.48560 | 208 ft | 12 kts | 296° |
| 2026-05-04 20:41 | 39.49319 | -0.48655 | 210 ft | 11 kts | 296° |
| 2026-05-04 20:41 | 39.49354 | -0.48744 | 208 ft | 10 kts | 298° |
| 2026-05-04 20:42 | 39.49382 | -0.48815 | 212 ft | 8 kts | 295° |
| 2026-05-04 20:42 | 39.49404 | -0.48875 | 211 ft | 7 kts | 296° |
| 2026-05-04 20:42 | 39.49426 | -0.48934 | 213 ft | 8 kts | 296° |
| 2026-05-04 20:42 | 39.49452 | -0.49004 | 212 ft | 10 kts | 298° |
| 2026-05-04 20:43 | 39.49487 | -0.49091 | 212 ft | 12 kts | 296° |
| 2026-05-04 20:43 | 39.49525 | -0.49194 | 217 ft | 13 kts | 295° |
| 2026-05-04 20:43 | 39.49570 | -0.49314 | 216 ft | 16 kts | 297° |
| 2026-05-04 20:43 | 39.49620 | -0.49445 | 211 ft | 17 kts | 296° |
| 2026-05-04 20:44 | 39.49664 | -0.49560 | 211 ft | 12 kts | 297° |
| 2026-05-04 20:44 | 39.49698 | -0.49646 | 216 ft | 10 kts | 297° |
| 2026-05-04 20:44 | 39.49727 | -0.49724 | 214 ft | 10 kts | 295° |
| 2026-05-04 20:44 | 39.49756 | -0.49804 | 208 ft | 10 kts | 295° |
| 2026-05-04 20:45 | 39.49783 | -0.49883 | 214 ft | 8 kts | 291° |
| 2026-05-04 20:45 | 39.49789 | -0.49917 | 212 ft | 0 kts | 274° |
| 2026-05-04 20:45 | 39.49786 | -0.49932 | 216 ft | 3 kts | 253° |
| 2026-05-04 20:45 | 39.49767 | -0.49962 | 209 ft | 6 kts | 221° |
| 2026-05-04 20:46 | 39.49730 | -0.49990 | 210 ft | 7 kts | 207° |
| 2026-05-04 20:46 | 39.49686 | -0.50015 | 213 ft | 7 kts | 195° |
| 2026-05-04 20:46 | 39.49634 | -0.49998 | 215 ft | 10 kts | 133° |
| 2026-05-04 20:46 | 39.49524 | -0.49714 | 209 ft | 80 kts | 116° |
| 2026-05-04 20:47 | 39.49146 | -0.48711 | 215 ft | 165 kts | 115° |
| 2026-05-04 20:47 | 39.48541 | -0.47161 | 549 ft | 208 kts | 117° |
| 2026-05-04 20:47 | 39.47851 | -0.45564 | 1797 ft | 207 kts | 119° |
| 2026-05-04 20:47 | 39.47089 | -0.43954 | 2576 ft | 215 kts | 126° |
| 2026-05-04 20:48 | 39.45934 | -0.42600 | 2811 ft | 237 kts | 155° |
| 2026-05-04 20:48 | 39.44449 | -0.41539 | 3074 ft | 258 kts | 136° |
| 2026-05-04 20:48 | 39.43479 | -0.39522 | 3554 ft | 271 kts | 115° |
| 2026-05-04 20:48 | 39.42603 | -0.37323 | 4314 ft | 277 kts | 120° |
| 2026-05-04 20:49 | 39.41616 | -0.35199 | 5095 ft | 282 kts | 123° |
| 2026-05-04 20:49 | 39.40547 | -0.33055 | 5891 ft | 286 kts | 124° |
| 2026-05-04 20:49 | 39.39328 | -0.31021 | 6634 ft | 288 kts | 143° |
| 2026-05-04 20:49 | 39.37536 | -0.30019 | 7427 ft | 280 kts | 178° |
| 2026-05-04 20:50 | 39.35686 | -0.30452 | 8274 ft | 269 kts | 212° |
| 2026-05-04 20:50 | 39.34378 | -0.32096 | 9112 ft | 264 kts | 240° |
| 2026-05-04 20:50 | 39.33596 | -0.34237 | 9940 ft | 265 kts | 246° |
| 2026-05-04 20:50 | 39.32734 | -0.36390 | 10391 ft | 280 kts | 242° |
| 2026-05-04 20:51 | 39.31831 | -0.38697 | 10554 ft | 303 kts | 246° |
| 2026-05-04 20:51 | 39.31062 | -0.41322 | 10847 ft | 320 kts | 252° |
| 2026-05-04 20:51 | 39.30526 | -0.44149 | 11451 ft | 327 kts | 259° |
| 2026-05-04 20:51 | 39.30262 | -0.47071 | 12182 ft | 330 kts | 266° |
| 2026-05-04 20:52 | 39.30282 | -0.50042 | 12949 ft | 333 kts | 273° |
| 2026-05-04 20:52 | 39.30594 | -0.53029 | 13688 ft | 338 kts | 280° |
| 2026-05-04 20:52 | 39.31205 | -0.55976 | 14439 ft | 341 kts | 287° |
| 2026-05-04 20:52 | 39.32101 | -0.58782 | 15217 ft | 344 kts | 293° |
| 2026-05-04 20:53 | 39.33294 | -0.61480 | 15971 ft | 349 kts | 300° |
| 2026-05-04 20:53 | 39.34764 | -0.64007 | 16707 ft | 355 kts | 307° |
| 2026-05-04 20:53 | 39.36659 | -0.66127 | 17401 ft | 365 kts | 318° |
| 2026-05-04 20:53 | 39.38729 | -0.68065 | 18079 ft | 370 kts | 319° |
| 2026-05-04 20:54 | 39.40843 | -0.69993 | 18691 ft | 374 kts | 319° |
| 2026-05-04 20:54 | 39.42968 | -0.71946 | 19286 ft | 376 kts | 319° |
| 2026-05-04 20:54 | 39.45100 | -0.73935 | 19882 ft | 379 kts | 318° |
| 2026-05-04 20:54 | 39.47233 | -0.75954 | 20455 ft | 382 kts | 318° |
| 2026-05-04 20:55 | 39.49377 | -0.78003 | 21021 ft | 385 kts | 317° |
| 2026-05-04 20:55 | 39.51509 | -0.80052 | 21569 ft | 388 kts | 317° |
| 2026-05-04 20:55 | 39.53683 | -0.82147 | 22144 ft | 391 kts | 317° |
| 2026-05-04 20:55 | 39.55870 | -0.84259 | 22680 ft | 394 kts | 317° |
| 2026-05-04 20:56 | 39.58076 | -0.86390 | 23195 ft | 397 kts | 317° |
| 2026-05-04 20:56 | 39.60299 | -0.88540 | 23658 ft | 400 kts | 317° |
| 2026-05-04 20:56 | 39.62537 | -0.90707 | 24101 ft | 402 kts | 317° |
| 2026-05-04 20:56 | 39.64788 | -0.92884 | 24549 ft | 405 kts | 317° |
| 2026-05-04 20:57 | 39.67049 | -0.95073 | 24987 ft | 406 kts | 317° |
| 2026-05-04 20:57 | 39.69286 | -0.97248 | 25408 ft | 408 kts | 316° |
| 2026-05-04 20:57 | 39.71270 | -0.99814 | 25784 ft | 400 kts | 300° |
| 2026-05-04 20:57 | 39.72704 | -1.02876 | 26221 ft | 396 kts | 294° |
| 2026-05-04 20:58 | 39.74047 | -1.06009 | 26644 ft | 398 kts | 294° |
| 2026-05-04 20:58 | 39.75384 | -1.09160 | 27117 ft | 398 kts | 294° |
| 2026-05-04 20:58 | 39.76719 | -1.12290 | 27752 ft | 394 kts | 294° |
| 2026-05-04 20:58 | 39.78052 | -1.15385 | 28406 ft | 390 kts | 294° |
| 2026-05-04 20:59 | 39.79361 | -1.18411 | 28994 ft | 388 kts | 294° |
| 2026-05-04 20:59 | 39.80684 | -1.21460 | 29534 ft | 387 kts | 294° |
| 2026-05-04 20:59 | 39.82006 | -1.24505 | 30075 ft | 386 kts | 294° |
| 2026-05-04 20:59 | 39.83321 | -1.27534 | 30565 ft | 383 kts | 294° |
| 2026-05-04 21:00 | 39.84627 | -1.30543 | 31014 ft | 381 kts | 294° |
| 2026-05-04 21:00 | 39.85927 | -1.33545 | 31408 ft | 381 kts | 293° |
| 2026-05-04 21:00 | 39.87228 | -1.36550 | 31817 ft | 380 kts | 293° |
| 2026-05-04 21:00 | 39.88525 | -1.39547 | 32252 ft | 379 kts | 293° |
| 2026-05-04 21:01 | 39.89814 | -1.42531 | 32694 ft | 377 kts | 293° |
| 2026-05-04 21:01 | 39.91082 | -1.45469 | 33002 ft | 379 kts | 293° |
| 2026-05-04 21:01 | 39.93674 | -1.51492 | 32998 ft | 381 kts | 293° |
| 2026-05-04 21:02 | 39.96239 | -1.57452 | 33008 ft | 375 kts | 293° |
| 2026-05-04 21:02 | 39.98788 | -1.63398 | 33019 ft | 376 kts | 293° |
| 2026-05-04 21:03 | 40.01345 | -1.69373 | 33016 ft | 378 kts | 293° |
| 2026-05-04 21:03 | 40.03890 | -1.75332 | 33013 ft | 379 kts | 293° |
| 2026-05-04 21:04 | 40.06455 | -1.81345 | 33012 ft | 379 kts | 293° |
| 2026-05-04 21:04 | 40.09017 | -1.87364 | 33012 ft | 379 kts | 293° |
| 2026-05-04 21:05 | 40.11568 | -1.93370 | 33003 ft | 377 kts | 293° |
| 2026-05-04 21:05 | 40.14089 | -1.99314 | 33007 ft | 375 kts | 293° |
| 2026-05-04 21:06 | 40.16619 | -2.05267 | 33010 ft | 374 kts | 293° |
| 2026-05-04 21:06 | 40.19150 | -2.11206 | 33008 ft | 373 kts | 293° |
| 2026-05-04 21:07 | 40.21668 | -2.17139 | 33002 ft | 373 kts | 292° |
| 2026-05-04 21:07 | 40.24136 | -2.23037 | 33001 ft | 372 kts | 292° |
| 2026-05-04 21:08 | 40.26612 | -2.28981 | 33003 ft | 372 kts | 292° |
| 2026-05-04 21:08 | 40.29088 | -2.34933 | 32996 ft | 372 kts | 292° |
| 2026-05-04 21:09 | 40.31563 | -2.40890 | 33001 ft | 373 kts | 292° |
| 2026-05-04 21:09 | 40.34023 | -2.46820 | 32989 ft | 373 kts | 292° |
| 2026-05-04 21:10 | 40.36503 | -2.52809 | 32997 ft | 373 kts | 292° |
| 2026-05-04 21:10 | 40.38933 | -2.58813 | 32996 ft | 373 kts | 291° |
| 2026-05-04 21:11 | 40.41300 | -2.64859 | 32991 ft | 373 kts | 291° |
| 2026-05-04 21:11 | 40.43640 | -2.70854 | 32989 ft | 372 kts | 291° |
| 2026-05-04 21:12 | 40.45999 | -2.76891 | 32987 ft | 370 kts | 291° |
| 2026-05-04 21:12 | 40.48346 | -2.82898 | 32993 ft | 369 kts | 290° |
| 2026-05-04 21:13 | 40.50680 | -2.88882 | 32998 ft | 367 kts | 290° |
| 2026-05-04 21:13 | 40.53007 | -2.94861 | 33000 ft | 367 kts | 290° |
| 2026-05-04 21:14 | 40.55316 | -3.00807 | 32985 ft | 368 kts | 290° |
| 2026-05-04 21:14 | 40.57641 | -3.06805 | 32986 ft | 368 kts | 290° |
| 2026-05-04 21:15 | 40.59960 | -3.12799 | 32995 ft | 368 kts | 290° |
| 2026-05-04 21:15 | 40.62278 | -3.18803 | 32997 ft | 368 kts | 290° |
| 2026-05-04 21:16 | 40.64582 | -3.24782 | 32991 ft | 368 kts | 290° |
| 2026-05-04 21:16 | 40.66896 | -3.30800 | 32998 ft | 368 kts | 290° |
| 2026-05-04 21:17 | 40.69207 | -3.36821 | 32993 ft | 368 kts | 290° |
| 2026-05-04 21:17 | 40.71514 | -3.42845 | 32994 ft | 368 kts | 290° |
| 2026-05-04 21:18 | 40.73803 | -3.48834 | 32997 ft | 368 kts | 290° |
| 2026-05-04 21:18 | 40.76105 | -3.54871 | 32993 ft | 368 kts | 290° |
| 2026-05-04 21:19 | 40.78402 | -3.60904 | 33012 ft | 368 kts | 290° |
| 2026-05-04 21:19 | 40.80695 | -3.66942 | 32998 ft | 368 kts | 290° |
| 2026-05-04 21:20 | 40.82969 | -3.72941 | 33008 ft | 368 kts | 290° |
| 2026-05-04 21:20 | 40.85255 | -3.78984 | 32998 ft | 367 kts | 290° |
| 2026-05-04 21:21 | 40.87532 | -3.85015 | 33014 ft | 366 kts | 290° |
| 2026-05-04 21:21 | 40.89804 | -3.91048 | 33009 ft | 367 kts | 290° |
| 2026-05-04 21:22 | 40.92054 | -3.97034 | 33028 ft | 367 kts | 290° |
| 2026-05-04 21:22 | 40.94330 | -4.03102 | 33030 ft | 369 kts | 290° |
| 2026-05-04 21:23 | 40.96611 | -4.09197 | 33031 ft | 370 kts | 290° |
| 2026-05-04 21:23 | 40.98896 | -4.15311 | 33028 ft | 371 kts | 290° |
| 2026-05-04 21:24 | 41.01168 | -4.21404 | 33024 ft | 372 kts | 290° |
| 2026-05-04 21:24 | 41.03458 | -4.27544 | 33023 ft | 372 kts | 290° |
| 2026-05-04 21:25 | 41.05750 | -4.33693 | 33024 ft | 372 kts | 290° |
| 2026-05-04 21:25 | 41.08036 | -4.39840 | 33024 ft | 372 kts | 290° |
| 2026-05-04 21:26 | 41.10300 | -4.45943 | 33022 ft | 371 kts | 290° |
| 2026-05-04 21:26 | 41.12573 | -4.52084 | 33028 ft | 371 kts | 290° |
| 2026-05-04 21:27 | 41.14842 | -4.58225 | 33025 ft | 371 kts | 290° |
| 2026-05-04 21:27 | 41.17103 | -4.64371 | 33028 ft | 370 kts | 290° |
| 2026-05-04 21:28 | 41.19338 | -4.70482 | 33027 ft | 371 kts | 290° |
| 2026-05-04 21:28 | 41.21588 | -4.76651 | 33033 ft | 371 kts | 290° |
| 2026-05-04 21:29 | 41.23841 | -4.82835 | 33030 ft | 372 kts | 290° |
| 2026-05-04 21:29 | 41.26096 | -4.89040 | 33031 ft | 373 kts | 290° |
| 2026-05-04 21:30 | 41.28353 | -4.95262 | 33038 ft | 374 kts | 290° |
| 2026-05-04 21:30 | 41.30601 | -5.01467 | 33034 ft | 375 kts | 290° |
| 2026-05-04 21:31 | 41.34004 | -5.10876 | 33036 ft | 377 kts | 290° |
| 2026-05-04 21:32 | 41.36275 | -5.17176 | 33041 ft | 378 kts | 290° |
| 2026-05-04 21:32 | 41.38534 | -5.23454 | 33038 ft | 379 kts | 290° |
| 2026-05-04 21:33 | 41.40807 | -5.29786 | 33041 ft | 379 kts | 290° |
| 2026-05-04 21:33 | 41.43079 | -5.36129 | 33042 ft | 379 kts | 290° |
| 2026-05-04 21:34 | 41.45348 | -5.42479 | 33043 ft | 379 kts | 291° |
| 2026-05-04 21:34 | 41.47600 | -5.48794 | 33046 ft | 380 kts | 291° |
| 2026-05-04 21:35 | 41.49863 | -5.55154 | 33050 ft | 379 kts | 291° |
| 2026-05-04 21:35 | 41.51919 | -5.61599 | 33043 ft | 374 kts | 281° |
| 2026-05-04 21:36 | 41.52662 | -5.68409 | 33042 ft | 370 kts | 268° |
| 2026-05-04 21:36 | 41.52256 | -5.75237 | 33053 ft | 369 kts | 263° |
| 2026-05-04 21:37 | 41.51733 | -5.82004 | 33051 ft | 369 kts | 263° |
| 2026-05-04 21:37 | 41.51219 | -5.88832 | 33051 ft | 370 kts | 263° |
| 2026-05-04 21:38 | 41.50715 | -5.95667 | 33058 ft | 370 kts | 264° |
| 2026-05-04 21:38 | 41.50211 | -6.02508 | 33061 ft | 371 kts | 264° |
| 2026-05-04 21:39 | 41.49706 | -6.09313 | 33061 ft | 371 kts | 264° |
| 2026-05-04 21:39 | 41.49194 | -6.16165 | 33066 ft | 371 kts | 264° |
| 2026-05-04 21:40 | 41.48678 | -6.23021 | 33065 ft | 371 kts | 264° |
| 2026-05-04 21:40 | 41.48157 | -6.29875 | 33060 ft | 372 kts | 264° |
| 2026-05-04 21:41 | 41.47634 | -6.36675 | 33071 ft | 371 kts | 264° |
| 2026-05-04 21:41 | 41.47103 | -6.43522 | 33065 ft | 371 kts | 264° |
| 2026-05-04 21:42 | 41.46570 | -6.50359 | 33068 ft | 371 kts | 264° |
| 2026-05-04 21:42 | 41.46033 | -6.57201 | 33065 ft | 371 kts | 264° |
| 2026-05-04 21:43 | 41.45496 | -6.63987 | 33071 ft | 371 kts | 264° |
| 2026-05-04 21:43 | 41.44951 | -6.70829 | 33065 ft | 371 kts | 264° |
| 2026-05-04 21:44 | 41.44401 | -6.77666 | 33078 ft | 371 kts | 264° |
| 2026-05-04 21:44 | 41.43848 | -6.84501 | 33075 ft | 371 kts | 264° |
| 2026-05-04 21:45 | 41.43290 | -6.91343 | 33078 ft | 371 kts | 264° |
| 2026-05-04 21:45 | 41.42735 | -6.98096 | 32774 ft | 364 kts | 264° |
| 2026-05-04 21:45 | 41.42462 | -7.01403 | 32509 ft | 355 kts | 264° |
| 2026-05-04 21:46 | 41.42193 | -7.04647 | 32268 ft | 350 kts | 264° |
| 2026-05-04 21:46 | 41.41927 | -7.07850 | 32004 ft | 346 kts | 264° |
| 2026-05-04 21:46 | 41.41662 | -7.11021 | 31761 ft | 343 kts | 264° |
| 2026-05-04 21:46 | 41.41400 | -7.14160 | 31509 ft | 340 kts | 264° |
| 2026-05-04 21:47 | 41.41226 | -7.16231 | 31421 ft | 340 kts | 264° |
| 2026-05-04 21:47 | 41.40608 | -7.23556 | 31387 ft | 341 kts | 264° |
| 2026-05-04 21:48 | 41.40077 | -7.29815 | 31387 ft | 340 kts | 264° |
| 2026-05-04 21:48 | 41.39632 | -7.35029 | 31388 ft | 341 kts | 264° |
| 2026-05-04 21:49 | 41.39093 | -7.41313 | 31379 ft | 342 kts | 264° |
| 2026-05-04 21:49 | 41.37992 | -7.47462 | 31396 ft | 344 kts | 251° |
| 2026-05-04 21:50 | 41.35278 | -7.53981 | 31096 ft | 349 kts | 242° |
| 2026-05-04 21:50 | 41.34380 | -7.55802 | 30926 ft | 346 kts | 241° |
| 2026-05-04 21:50 | 41.33062 | -7.58455 | 30683 ft | 341 kts | 241° |
| 2026-05-04 21:50 | 41.31785 | -7.61031 | 30436 ft | 336 kts | 242° |
| 2026-05-04 21:51 | 41.30512 | -7.63614 | 30209 ft | 333 kts | 242° |
| 2026-05-04 21:51 | 41.29250 | -7.66188 | 29916 ft | 331 kts | 242° |
| 2026-05-04 21:51 | 41.27998 | -7.68744 | 29635 ft | 329 kts | 242° |
| 2026-05-04 21:51 | 41.26752 | -7.71290 | 29353 ft | 328 kts | 242° |
| 2026-05-04 21:52 | 41.25512 | -7.73825 | 29059 ft | 326 kts | 242° |
| 2026-05-04 21:52 | 41.23876 | -7.77167 | 28683 ft | 325 kts | 242° |
| 2026-05-04 21:52 | 41.23043 | -7.78867 | 28513 ft | 324 kts | 242° |
| 2026-05-04 21:52 | 41.21812 | -7.81378 | 28231 ft | 324 kts | 242° |
| 2026-05-04 21:53 | 41.20598 | -7.83852 | 27974 ft | 324 kts | 242° |
| 2026-05-04 21:53 | 41.19368 | -7.86353 | 27696 ft | 323 kts | 242° |
| 2026-05-04 21:53 | 41.18068 | -7.88797 | 27413 ft | 325 kts | 236° |
| 2026-05-04 21:53 | 41.16502 | -7.90988 | 27167 ft | 330 kts | 229° |
| 2026-05-04 21:54 | 41.14801 | -7.93031 | 26904 ft | 330 kts | 229° |
| 2026-05-04 21:54 | 41.13085 | -7.95048 | 26647 ft | 329 kts | 228° |
| 2026-05-04 21:54 | 41.11369 | -7.97059 | 26390 ft | 328 kts | 228° |
| 2026-05-04 21:54 | 41.09663 | -7.99063 | 26132 ft | 327 kts | 229° |
| 2026-05-04 21:55 | 41.07992 | -8.01032 | 25861 ft | 324 kts | 229° |
| 2026-05-04 21:55 | 41.06322 | -8.03003 | 25528 ft | 320 kts | 229° |
| 2026-05-04 21:55 | 41.04667 | -8.04958 | 25216 ft | 317 kts | 229° |
| 2026-05-04 21:55 | 41.03025 | -8.06902 | 24858 ft | 315 kts | 229° |
| 2026-05-04 21:56 | 41.01397 | -8.08829 | 24524 ft | 313 kts | 229° |
| 2026-05-04 21:56 | 40.99779 | -8.10745 | 24172 ft | 311 kts | 229° |
| 2026-05-04 21:56 | 40.98172 | -8.12645 | 23851 ft | 309 kts | 229° |
| 2026-05-04 21:56 | 40.96575 | -8.14533 | 23481 ft | 307 kts | 229° |
| 2026-05-04 21:57 | 40.94982 | -8.16416 | 23088 ft | 306 kts | 229° |
| 2026-05-04 21:57 | 40.93400 | -8.18283 | 22737 ft | 304 kts | 229° |
| 2026-05-04 21:57 | 40.91855 | -8.20106 | 22438 ft | 300 kts | 229° |
| 2026-05-04 21:57 | 40.90305 | -8.21932 | 22099 ft | 298 kts | 229° |
| 2026-05-04 21:58 | 40.88764 | -8.23749 | 21758 ft | 296 kts | 229° |
| 2026-05-04 21:58 | 40.87233 | -8.25554 | 21420 ft | 294 kts | 229° |
| 2026-05-04 21:58 | 40.85711 | -8.27346 | 21100 ft | 292 kts | 229° |
| 2026-05-04 21:58 | 40.84195 | -8.29128 | 20787 ft | 291 kts | 229° |
| 2026-05-04 21:59 | 40.82690 | -8.30899 | 20458 ft | 289 kts | 229° |
| 2026-05-04 21:59 | 40.81198 | -8.32652 | 20165 ft | 286 kts | 228° |
| 2026-05-04 21:59 | 40.79736 | -8.34369 | 19866 ft | 284 kts | 228° |
| 2026-05-04 21:59 | 40.78263 | -8.36097 | 19571 ft | 283 kts | 228° |
| 2026-05-04 22:00 | 40.76796 | -8.37816 | 19279 ft | 282 kts | 228° |
| 2026-05-04 22:00 | 40.75453 | -8.39650 | 18951 ft | 274 kts | 243° |
| 2026-05-04 22:00 | 40.74781 | -8.41925 | 18689 ft | 264 kts | 264° |
| 2026-05-04 22:00 | 40.74790 | -8.44324 | 18406 ft | 263 kts | 281° |
| 2026-05-04 22:01 | 40.75362 | -8.46632 | 18067 ft | 269 kts | 296° |
| 2026-05-04 22:01 | 40.76524 | -8.48592 | 17760 ft | 282 kts | 310° |
| 2026-05-04 22:01 | 40.77928 | -8.50426 | 17416 ft | 285 kts | 312° |
| 2026-05-04 22:01 | 40.79354 | -8.52229 | 17087 ft | 283 kts | 313° |
| 2026-05-04 22:02 | 40.80768 | -8.54012 | 16765 ft | 280 kts | 313° |
| 2026-05-04 22:02 | 40.82168 | -8.55786 | 16472 ft | 277 kts | 312° |
| 2026-05-04 22:02 | 40.83552 | -8.57547 | 16155 ft | 276 kts | 312° |
| 2026-05-04 22:02 | 40.84926 | -8.59302 | 15850 ft | 274 kts | 312° |
| 2026-05-04 22:03 | 40.86291 | -8.61049 | 15554 ft | 272 kts | 313° |
| 2026-05-04 22:03 | 40.87616 | -8.62749 | 15251 ft | 271 kts | 313° |
| 2026-05-04 22:03 | 40.88946 | -8.64457 | 14957 ft | 269 kts | 313° |
| 2026-05-04 22:03 | 40.90286 | -8.66179 | 14655 ft | 268 kts | 313° |
| 2026-05-04 22:04 | 40.91621 | -8.67896 | 14354 ft | 267 kts | 313° |
| 2026-05-04 22:04 | 40.92948 | -8.69604 | 14053 ft | 266 kts | 313° |
| 2026-05-04 22:04 | 40.94273 | -8.71311 | 13733 ft | 265 kts | 313° |
| 2026-05-04 22:04 | 40.95595 | -8.73005 | 13410 ft | 264 kts | 316° |
| 2026-05-04 22:05 | 40.97166 | -8.74278 | 13093 ft | 268 kts | 336° |
| 2026-05-04 22:05 | 40.98977 | -8.74894 | 12809 ft | 269 kts | 344° |
| 2026-05-04 22:05 | 41.00783 | -8.75363 | 12505 ft | 268 kts | 345° |
| 2026-05-04 22:05 | 41.02607 | -8.75819 | 12212 ft | 266 kts | 345° |
| 2026-05-04 22:06 | 41.04422 | -8.76276 | 11920 ft | 265 kts | 345° |
| 2026-05-04 22:06 | 41.06228 | -8.76736 | 11630 ft | 264 kts | 345° |
| 2026-05-04 22:06 | 41.08024 | -8.77201 | 11355 ft | 262 kts | 345° |
| 2026-05-04 22:06 | 41.09814 | -8.77667 | 11056 ft | 261 kts | 345° |
| 2026-05-04 22:07 | 41.11594 | -8.78134 | 10775 ft | 260 kts | 346° |
| 2026-05-04 22:07 | 41.13366 | -8.78601 | 10491 ft | 259 kts | 346° |
| 2026-05-04 22:07 | 41.15110 | -8.79061 | 10245 ft | 257 kts | 346° |
| 2026-05-04 22:07 | 41.16836 | -8.79517 | 10121 ft | 250 kts | 346° |
| 2026-05-04 22:08 | 41.18543 | -8.79969 | 9821 ft | 250 kts | 346° |
| 2026-05-04 22:08 | 41.20244 | -8.80421 | 9548 ft | 249 kts | 346° |
| 2026-05-04 22:08 | 41.21935 | -8.80870 | 9276 ft | 247 kts | 346° |
| 2026-05-04 22:08 | 41.23622 | -8.81318 | 8957 ft | 248 kts | 346° |
| 2026-05-04 22:09 | 41.25315 | -8.81769 | 8652 ft | 248 kts | 346° |
| 2026-05-04 22:09 | 41.27003 | -8.82217 | 8372 ft | 247 kts | 346° |
| 2026-05-04 22:09 | 41.28662 | -8.82659 | 8107 ft | 246 kts | 346° |
| 2026-05-04 22:09 | 41.30338 | -8.83103 | 7842 ft | 245 kts | 346° |
| 2026-05-04 22:10 | 41.32005 | -8.83544 | 7583 ft | 243 kts | 347° |
| 2026-05-04 22:10 | 41.33662 | -8.83983 | 7331 ft | 242 kts | 347° |
| 2026-05-04 22:10 | 41.35313 | -8.84420 | 7068 ft | 242 kts | 347° |
| 2026-05-04 22:10 | 41.36959 | -8.84856 | 6814 ft | 241 kts | 347° |
| 2026-05-04 22:11 | 41.38599 | -8.85292 | 6552 ft | 240 kts | 347° |
| 2026-05-04 22:11 | 41.40238 | -8.85726 | 6270 ft | 240 kts | 347° |
| 2026-05-04 22:11 | 41.41869 | -8.86169 | 5999 ft | 239 kts | 347° |
| 2026-05-04 22:11 | 41.43471 | -8.86609 | 5730 ft | 238 kts | 347° |
| 2026-05-04 22:12 | 41.45088 | -8.87053 | 5462 ft | 237 kts | 347° |
| 2026-05-04 22:12 | 41.46670 | -8.87488 | 5372 ft | 225 kts | 347° |
| 2026-05-04 22:12 | 41.48181 | -8.87528 | 5236 ft | 215 kts | 13° |
| 2026-05-04 22:12 | 41.49449 | -8.86581 | 5134 ft | 207 kts | 39° |
| 2026-05-04 22:13 | 41.50298 | -8.85062 | 4782 ft | 212 kts | 64° |
| 2026-05-04 22:13 | 41.50642 | -8.83145 | 4478 ft | 212 kts | 76° |
| 2026-05-04 22:13 | 41.50927 | -8.81254 | 4319 ft | 202 kts | 75° |
| 2026-05-04 22:13 | 41.51197 | -8.79472 | 4202 ft | 196 kts | 75° |
| 2026-05-04 22:14 | 41.51191 | -8.77651 | 4105 ft | 202 kts | 106° |
| 2026-05-04 22:14 | 41.50482 | -8.76014 | 4040 ft | 209 kts | 138° |
| 2026-05-04 22:14 | 41.49191 | -8.75139 | 3987 ft | 210 kts | 162° |
| 2026-05-04 22:14 | 41.47800 | -8.74499 | 3767 ft | 212 kts | 161° |
| 2026-05-04 22:15 | 41.46403 | -8.73906 | 3560 ft | 209 kts | 166° |
| 2026-05-04 22:15 | 41.45029 | -8.73462 | 3356 ft | 197 kts | 169° |
| 2026-05-04 22:15 | 41.43746 | -8.73108 | 3151 ft | 185 kts | 169° |
| 2026-05-04 22:15 | 41.42521 | -8.72784 | 2975 ft | 177 kts | 170° |
| 2026-05-04 22:16 | 41.41352 | -8.72476 | 2896 ft | 164 kts | 170° |
| 2026-05-04 22:16 | 41.40214 | -8.72178 | 2758 ft | 166 kts | 170° |
| 2026-05-04 22:16 | 41.39111 | -8.71887 | 2570 ft | 157 kts | 170° |
| 2026-05-04 22:16 | 41.38072 | -8.71615 | 2378 ft | 147 kts | 169° |
| 2026-05-04 22:17 | 41.37110 | -8.71361 | 2200 ft | 135 kts | 169° |
| 2026-05-04 22:17 | 41.36215 | -8.71126 | 2056 ft | 131 kts | 170° |
| 2026-05-04 22:17 | 41.35313 | -8.70889 | 1903 ft | 134 kts | 170° |
| 2026-05-04 22:17 | 41.34409 | -8.70651 | 1741 ft | 134 kts | 169° |
| 2026-05-04 22:18 | 41.33503 | -8.70413 | 1575 ft | 131 kts | 169° |
| 2026-05-04 22:18 | 41.32610 | -8.70178 | 1405 ft | 132 kts | 169° |
| 2026-05-04 22:18 | 41.31718 | -8.69943 | 1246 ft | 132 kts | 170° |
| 2026-05-04 22:18 | 41.30802 | -8.69701 | 1081 ft | 137 kts | 170° |
| 2026-05-04 22:19 | 41.29885 | -8.69461 | 885 ft | 130 kts | 168° |
| 2026-05-04 22:19 | 41.29025 | -8.69231 | 738 ft | 124 kts | 171° |
| 2026-05-04 22:19 | 41.28085 | -8.68987 | 695 ft | 150 kts | 170° |
| 2026-05-04 22:19 | 41.27064 | -8.68715 | 551 ft | 150 kts | 169° |
| 2026-05-04 22:20 | 41.26035 | -8.68435 | 293 ft | 156 kts | 169° |
| 2026-05-04 22:20 | 41.25062 | -8.68186 | 202 ft | 129 kts | 170° |
| 2026-05-04 22:20 | 41.24335 | -8.67997 | 213 ft | 77 kts | 168° |
| 2026-05-04 22:20 | 41.24014 | -8.67916 | 220 ft | 17 kts | 167° |
| 2026-05-04 22:21 | 41.23999 | -8.67912 | 221 ft | 0 kts | 168° |
| 2026-05-04 22:21 | 41.23952 | -8.67898 | 219 ft | 9 kts | 166° |
| 2026-05-04 22:21 | 41.23895 | -8.67832 | 221 ft | 13 kts | 104° |
| 2026-05-04 22:21 | 41.23899 | -8.67768 | 224 ft | 0 kts | 79° |
| 2026-05-04 22:22 | 41.23903 | -8.67743 | 225 ft | 4 kts | 80° |
| 2026-05-04 22:22 | 41.23907 | -8.67708 | 229 ft | 4 kts | 80° |
| 2026-05-04 22:23 | 41.23912 | -8.67673 | 232 ft | 4 kts | 80° |
| 2026-05-04 22:23 | 41.23916 | -8.67640 | 234 ft | 4 kts | 80° |
| 2026-05-04 22:23 | 41.23921 | -8.67606 | 239 ft | 4 kts | 78° |
| 2026-05-04 22:23 | 41.23924 | -8.67558 | 237 ft | 6 kts | 95° |
| 2026-05-04 22:24 | 41.23907 | -8.67512 | 237 ft | 6 kts | 135° |
| 2026-05-04 22:24 | 41.23873 | -8.67492 | 238 ft | 5 kts | 163° |
| 2026-05-04 22:24 | 41.23846 | -8.67482 | 236 ft | 2 kts | 167° |
| 2026-05-04 22:24 | 41.23833 | -8.67478 | 236 ft | 2 kts | 167° |
| 2026-05-04 22:25 | 41.23819 | -8.67474 | 236 ft | 3 kts | 167° |
| 2026-05-04 22:25 | 41.23781 | -8.67463 | 236 ft | 7 kts | 164° |
| 2026-05-04 22:25 | 41.23740 | -8.67427 | 237 ft | 7 kts | 134° |
| 2026-05-04 22:25 | 41.23730 | -8.67382 | 237 ft | 5 kts | 81° |
| 2026-05-04 22:26 | 41.23747 | -8.67339 | 236 ft | 5 kts | 55° |
| 2026-05-04 22:26 | 41.23760 | -8.67317 | 239 ft | 2 kts | 51° |
| 2026-05-04 22:26 | 41.23764 | -8.67310 | 238 ft | 0 kts | 50° |
| 2026-05-04 22:26 | 41.23766 | -8.67307 | 238 ft | 0 kts | 50° |
| 2026-05-04 22:27 | 41.23768 | -8.67304 | 238 ft | 0 kts | 50° |
| 2026-05-04 22:27 | 41.23769 | -8.67303 | 238 ft | 0 kts | 50° |
| 2026-05-04 22:27 | 41.23769 | -8.67302 | 238 ft | 0 kts | 50° |